sensor_id;sensor_type;location;lat;lon;timestamp;pressure;altitude;pressure_sealevel;temperature
71081;BMP180;58740;50.672;18.690;2023-05-07T00:00:25;99233.40;;;10.10
71081;BMP180;58740;50.672;18.690;2023-05-07T00:03:13;99231.80;;;10.10
71081;BMP180;58740;50.672;18.690;2023-05-07T00:05:41;99232.20;;;10.08
71081;BMP180;58740;50.672;18.690;2023-05-07T00:08:10;99232.60;;;10.02
71081;BMP180;58740;50.672;18.690;2023-05-07T00:10:37;99236.80;;;10.00
71081;BMP180;58740;50.672;18.690;2023-05-07T00:13:05;99239.40;;;10.00
71081;BMP180;58740;50.672;18.690;2023-05-07T00:15:33;99239.20;;;9.98
71081;BMP180;58740;50.672;18.690;2023-05-07T00:18:01;99242.20;;;10.00
71081;BMP180;58740;50.672;18.690;2023-05-07T00:20:29;99241.00;;;10.00
71081;BMP180;58740;50.672;18.690;2023-05-07T00:22:57;99243.20;;;10.00
71081;BMP180;58740;50.672;18.690;2023-05-07T00:25:24;99245.60;;;10.00
71081;BMP180;58740;50.672;18.690;2023-05-07T00:27:52;99240.60;;;9.90
71081;BMP180;58740;50.672;18.690;2023-05-07T00:30:20;99253.00;;;9.90
71081;BMP180;58740;50.672;18.690;2023-05-07T00:32:47;99244.00;;;9.90
71081;BMP180;58740;50.672;18.690;2023-05-07T00:35:16;99247.80;;;9.90
71081;BMP180;58740;50.672;18.690;2023-05-07T00:37:44;99252.80;;;9.86
71081;BMP180;58740;50.672;18.690;2023-05-07T00:40:12;99251.60;;;9.80
71081;BMP180;58740;50.672;18.690;2023-05-07T00:42:40;99251.20;;;9.80
71081;BMP180;58740;50.672;18.690;2023-05-07T00:45:08;99257.80;;;9.80
71081;BMP180;58740;50.672;18.690;2023-05-07T00:47:36;99260.40;;;9.80
71081;BMP180;58740;50.672;18.690;2023-05-07T00:50:05;99257.20;;;9.80
71081;BMP180;58740;50.672;18.690;2023-05-07T00:52:33;99257.40;;;9.80
71081;BMP180;58740;50.672;18.690;2023-05-07T00:55:06;99256.00;;;9.70
71081;BMP180;58740;50.672;18.690;2023-05-07T00:57:40;99265.20;;;9.70
71081;BMP180;58740;50.672;18.690;2023-05-07T01:00:09;99261.00;;;9.70
71081;BMP180;58740;50.672;18.690;2023-05-07T01:02:39;99261.80;;;9.70
71081;BMP180;58740;50.672;18.690;2023-05-07T01:05:11;99261.40;;;9.70
71081;BMP180;58740;50.672;18.690;2023-05-07T01:07:41;99260.80;;;9.70
71081;BMP180;58740;50.672;18.690;2023-05-07T01:10:10;99263.20;;;9.60
71081;BMP180;58740;50.672;18.690;2023-05-07T01:12:40;99266.60;;;9.60
71081;BMP180;58740;50.672;18.690;2023-05-07T01:15:09;99261.20;;;9.60
71081;BMP180;58740;50.672;18.690;2023-05-07T01:17:42;99262.80;;;9.58
71081;BMP180;58740;50.672;18.690;2023-05-07T01:20:10;99263.40;;;9.50
71081;BMP180;58740;50.672;18.690;2023-05-07T01:22:40;99266.00;;;9.50
71081;BMP180;58740;50.672;18.690;2023-05-07T01:25:08;99267.60;;;9.50
71081;BMP180;58740;50.672;18.690;2023-05-07T01:27:36;99268.00;;;9.50
71081;BMP180;58740;50.672;18.690;2023-05-07T01:30:05;99270.40;;;9.50
71081;BMP180;58740;50.672;18.690;2023-05-07T01:32:51;99267.80;;;9.50
71081;BMP180;58740;50.672;18.690;2023-05-07T01:35:24;99273.40;;;9.50
71081;BMP180;58740;50.672;18.690;2023-05-07T01:37:53;99275.60;;;9.50
71081;BMP180;58740;50.672;18.690;2023-05-07T01:40:23;99275.40;;;9.50
71081;BMP180;58740;50.672;18.690;2023-05-07T01:42:52;99274.60;;;9.50
71081;BMP180;58740;50.672;18.690;2023-05-07T01:45:21;99274.80;;;9.48
71081;BMP180;58740;50.672;18.690;2023-05-07T01:47:50;99275.80;;;9.44
71081;BMP180;58740;50.672;18.690;2023-05-07T01:50:19;99275.40;;;9.50
71081;BMP180;58740;50.672;18.690;2023-05-07T01:52:49;99280.60;;;9.50
71081;BMP180;58740;50.672;18.690;2023-05-07T01:55:17;99283.80;;;9.50
71081;BMP180;58740;50.672;18.690;2023-05-07T01:57:45;99282.40;;;9.50
71081;BMP180;58740;50.672;18.690;2023-05-07T02:00:13;99287.80;;;9.50
71081;BMP180;58740;50.672;18.690;2023-05-07T02:02:41;99286.40;;;9.52
71081;BMP180;58740;50.672;18.690;2023-05-07T02:05:09;99284.40;;;9.50
71081;BMP180;58740;50.672;18.690;2023-05-07T02:07:37;99277.80;;;9.58
71081;BMP180;58740;50.672;18.690;2023-05-07T02:10:05;99283.60;;;9.56
71081;BMP180;58740;50.672;18.690;2023-05-07T02:12:33;99284.40;;;9.60
71081;BMP180;58740;50.672;18.690;2023-05-07T02:15:01;99282.20;;;9.60
71081;BMP180;58740;50.672;18.690;2023-05-07T02:17:29;99284.60;;;9.50
71081;BMP180;58740;50.672;18.690;2023-05-07T02:19:59;99281.40;;;9.50
71081;BMP180;58740;50.672;18.690;2023-05-07T02:22:27;99281.40;;;9.50
71081;BMP180;58740;50.672;18.690;2023-05-07T02:24:55;99280.60;;;9.50
71081;BMP180;58740;50.672;18.690;2023-05-07T02:27:22;99274.20;;;9.48
71081;BMP180;58740;50.672;18.690;2023-05-07T02:29:50;99276.80;;;9.46
71081;BMP180;58740;50.672;18.690;2023-05-07T02:32:18;99275.20;;;9.42
71081;BMP180;58740;50.672;18.690;2023-05-07T02:34:45;99277.00;;;9.40
71081;BMP180;58740;50.672;18.690;2023-05-07T02:37:13;99276.20;;;9.40
71081;BMP180;58740;50.672;18.690;2023-05-07T02:39:41;99277.60;;;9.40
71081;BMP180;58740;50.672;18.690;2023-05-07T02:42:08;99273.80;;;9.40
71081;BMP180;58740;50.672;18.690;2023-05-07T02:44:36;99277.60;;;9.40
71081;BMP180;58740;50.672;18.690;2023-05-07T02:47:04;99275.40;;;9.32
71081;BMP180;58740;50.672;18.690;2023-05-07T02:49:32;99276.60;;;9.30
71081;BMP180;58740;50.672;18.690;2023-05-07T02:52:00;99274.20;;;9.30
71081;BMP180;58740;50.672;18.690;2023-05-07T02:54:28;99275.80;;;9.28
71081;BMP180;58740;50.672;18.690;2023-05-07T02:56:56;99279.60;;;9.30
71081;BMP180;58740;50.672;18.690;2023-05-07T02:59:24;99283.00;;;9.20
71081;BMP180;58740;50.672;18.690;2023-05-07T03:01:53;99281.80;;;9.20
71081;BMP180;58740;50.672;18.690;2023-05-07T03:04:21;99289.40;;;9.18
71081;BMP180;58740;50.672;18.690;2023-05-07T03:06:49;99288.00;;;9.10
71081;BMP180;58740;50.672;18.690;2023-05-07T03:09:16;99289.80;;;9.10
71081;BMP180;58740;50.672;18.690;2023-05-07T03:11:44;99292.20;;;9.10
71081;BMP180;58740;50.672;18.690;2023-05-07T03:14:12;99292.00;;;9.00
71081;BMP180;58740;50.672;18.690;2023-05-07T03:16:40;99297.40;;;9.00
71081;BMP180;58740;50.672;18.690;2023-05-07T03:19:08;99299.00;;;9.00
71081;BMP180;58740;50.672;18.690;2023-05-07T03:21:36;99300.20;;;9.00
71081;BMP180;58740;50.672;18.690;2023-05-07T03:24:05;99309.80;;;9.00
71081;BMP180;58740;50.672;18.690;2023-05-07T03:26:32;99314.20;;;8.90
71081;BMP180;58740;50.672;18.690;2023-05-07T03:29:00;99319.20;;;8.84
71081;BMP180;58740;50.672;18.690;2023-05-07T03:31:28;99321.20;;;8.80
71081;BMP180;58740;50.672;18.690;2023-05-07T03:33:57;99326.80;;;8.80
71081;BMP180;58740;50.672;18.690;2023-05-07T03:36:25;99330.40;;;8.80
71081;BMP180;58740;50.672;18.690;2023-05-07T03:38:55;99327.60;;;8.80
71081;BMP180;58740;50.672;18.690;2023-05-07T03:41:23;99332.80;;;8.72
71081;BMP180;58740;50.672;18.690;2023-05-07T03:43:51;99335.00;;;8.70
71081;BMP180;58740;50.672;18.690;2023-05-07T03:46:19;99341.80;;;8.70
71081;BMP180;58740;50.672;18.690;2023-05-07T03:48:47;99344.40;;;8.70
71081;BMP180;58740;50.672;18.690;2023-05-07T03:51:15;99347.80;;;8.72
71081;BMP180;58740;50.672;18.690;2023-05-07T03:53:43;99351.40;;;8.74
71081;BMP180;58740;50.672;18.690;2023-05-07T03:56:13;99350.60;;;8.70
71081;BMP180;58740;50.672;18.690;2023-05-07T03:58:42;99351.80;;;8.70
71081;BMP180;58740;50.672;18.690;2023-05-07T04:01:11;99355.20;;;8.70
71081;BMP180;58740;50.672;18.690;2023-05-07T04:03:39;99357.40;;;8.70
71081;BMP180;58740;50.672;18.690;2023-05-07T04:06:07;99359.00;;;8.70
71081;BMP180;58740;50.672;18.690;2023-05-07T04:08:35;99364.00;;;8.60
71081;BMP180;58740;50.672;18.690;2023-05-07T04:11:03;99360.40;;;8.60
71081;BMP180;58740;50.672;18.690;2023-05-07T04:13:31;99367.00;;;8.50
71081;BMP180;58740;50.672;18.690;2023-05-07T04:16:02;99368.80;;;8.50
71081;BMP180;58740;50.672;18.690;2023-05-07T04:18:30;99370.20;;;8.50
71081;BMP180;58740;50.672;18.690;2023-05-07T04:20:58;99379.60;;;8.50
71081;BMP180;58740;50.672;18.690;2023-05-07T04:23:26;99383.80;;;8.50
71081;BMP180;58740;50.672;18.690;2023-05-07T04:25:54;99384.00;;;8.50
71081;BMP180;58740;50.672;18.690;2023-05-07T04:28:22;99387.20;;;8.50
71081;BMP180;58740;50.672;18.690;2023-05-07T04:30:49;99393.20;;;8.50
71081;BMP180;58740;50.672;18.690;2023-05-07T04:33:17;99399.60;;;8.42
71081;BMP180;58740;50.672;18.690;2023-05-07T04:35:45;99405.20;;;8.32
71081;BMP180;58740;50.672;18.690;2023-05-07T04:38:13;99405.60;;;8.30
71081;BMP180;58740;50.672;18.690;2023-05-07T04:40:42;99404.00;;;8.20
71081;BMP180;58740;50.672;18.690;2023-05-07T04:43:10;99409.60;;;8.20
71081;BMP180;58740;50.672;18.690;2023-05-07T04:45:38;99420.40;;;8.20
71081;BMP180;58740;50.672;18.690;2023-05-07T04:48:09;99419.00;;;8.20
71081;BMP180;58740;50.672;18.690;2023-05-07T04:50:37;99421.80;;;8.16
71081;BMP180;58740;50.672;18.690;2023-05-07T04:53:05;99422.40;;;8.10
71081;BMP180;58740;50.672;18.690;2023-05-07T04:55:34;99429.20;;;8.10
71081;BMP180;58740;50.672;18.690;2023-05-07T04:58:01;99432.40;;;8.10
71081;BMP180;58740;50.672;18.690;2023-05-07T05:00:29;99436.20;;;8.10
71081;BMP180;58740;50.672;18.690;2023-05-07T05:02:57;99442.20;;;8.10
71081;BMP180;58740;50.672;18.690;2023-05-07T05:05:25;99438.00;;;8.14
71081;BMP180;58740;50.672;18.690;2023-05-07T05:07:53;99444.00;;;8.18
71081;BMP180;58740;50.672;18.690;2023-05-07T05:10:22;99450.20;;;8.10
71081;BMP180;58740;50.672;18.690;2023-05-07T05:12:51;99448.00;;;8.10
71081;BMP180;58740;50.672;18.690;2023-05-07T05:15:19;99450.40;;;8.10
71081;BMP180;58740;50.672;18.690;2023-05-07T05:17:47;99445.40;;;8.10
71081;BMP180;58740;50.672;18.690;2023-05-07T05:20:15;99452.60;;;8.10
71081;BMP180;58740;50.672;18.690;2023-05-07T05:22:43;99459.40;;;8.10
71081;BMP180;58740;50.672;18.690;2023-05-07T05:25:10;99462.20;;;8.10
71081;BMP180;58740;50.672;18.690;2023-05-07T05:27:38;99464.40;;;8.10
71081;BMP180;58740;50.672;18.690;2023-05-07T05:30:06;99469.80;;;8.00
71081;BMP180;58740;50.672;18.690;2023-05-07T05:32:34;99467.00;;;8.00
71081;BMP180;58740;50.672;18.690;2023-05-07T05:35:02;99472.60;;;8.00
71081;BMP180;58740;50.672;18.690;2023-05-07T05:37:30;99473.40;;;8.00
71081;BMP180;58740;50.672;18.690;2023-05-07T05:39:58;99477.40;;;8.00
71081;BMP180;58740;50.672;18.690;2023-05-07T05:42:26;99479.80;;;8.00
71081;BMP180;58740;50.672;18.690;2023-05-07T05:44:54;99481.40;;;8.00
71081;BMP180;58740;50.672;18.690;2023-05-07T05:47:22;99482.20;;;7.90
71081;BMP180;58740;50.672;18.690;2023-05-07T05:49:50;99481.40;;;7.90
71081;BMP180;58740;50.672;18.690;2023-05-07T05:52:18;99482.00;;;7.90
71081;BMP180;58740;50.672;18.690;2023-05-07T05:54:46;99491.80;;;7.90
71081;BMP180;58740;50.672;18.690;2023-05-07T05:57:13;99493.80;;;7.90
71081;BMP180;58740;50.672;18.690;2023-05-07T05:59:41;99494.20;;;7.90
71081;BMP180;58740;50.672;18.690;2023-05-07T06:02:09;99494.40;;;7.90
71081;BMP180;58740;50.672;18.690;2023-05-07T06:04:37;99489.60;;;7.90
71081;BMP180;58740;50.672;18.690;2023-05-07T06:07:05;99496.80;;;7.90
71081;BMP180;58740;50.672;18.690;2023-05-07T06:09:33;99495.00;;;7.90
71081;BMP180;58740;50.672;18.690;2023-05-07T06:12:01;99501.60;;;7.90
71081;BMP180;58740;50.672;18.690;2023-05-07T06:14:29;99503.40;;;7.80
71081;BMP180;58740;50.672;18.690;2023-05-07T06:16:57;99507.20;;;7.80
71081;BMP180;58740;50.672;18.690;2023-05-07T06:19:25;99510.20;;;7.80
71081;BMP180;58740;50.672;18.690;2023-05-07T06:21:54;99508.40;;;7.80
71081;BMP180;58740;50.672;18.690;2023-05-07T06:24:24;99508.60;;;7.80
71081;BMP180;58740;50.672;18.690;2023-05-07T06:26:52;99509.40;;;7.80
71081;BMP180;58740;50.672;18.690;2023-05-07T06:29:19;99509.00;;;7.80
71081;BMP180;58740;50.672;18.690;2023-05-07T06:31:47;99509.20;;;7.80
71081;BMP180;58740;50.672;18.690;2023-05-07T06:34:15;99507.00;;;7.78
71081;BMP180;58740;50.672;18.690;2023-05-07T06:36:43;99510.40;;;7.80
71081;BMP180;58740;50.672;18.690;2023-05-07T06:39:11;99517.20;;;7.80
71081;BMP180;58740;50.672;18.690;2023-05-07T06:41:38;99519.20;;;7.82
71081;BMP180;58740;50.672;18.690;2023-05-07T06:44:06;99520.00;;;7.88
71081;BMP180;58740;50.672;18.690;2023-05-07T06:46:36;99520.80;;;7.90
71081;BMP180;58740;50.672;18.690;2023-05-07T06:49:04;99518.40;;;7.90
71081;BMP180;58740;50.672;18.690;2023-05-07T06:51:32;99524.00;;;7.90
71081;BMP180;58740;50.672;18.690;2023-05-07T06:54:01;99520.00;;;8.00
71081;BMP180;58740;50.672;18.690;2023-05-07T06:56:30;99530.80;;;8.00
71081;BMP180;58740;50.672;18.690;2023-05-07T06:58:59;99528.00;;;8.10
71081;BMP180;58740;50.672;18.690;2023-05-07T07:01:28;99525.20;;;8.10
71081;BMP180;58740;50.672;18.690;2023-05-07T07:03:55;99523.60;;;8.18
71081;BMP180;58740;50.672;18.690;2023-05-07T07:06:23;99523.80;;;8.16
71081;BMP180;58740;50.672;18.690;2023-05-07T07:08:51;99521.80;;;8.20
71081;BMP180;58740;50.672;18.690;2023-05-07T07:11:19;99525.60;;;8.20
71081;BMP180;58740;50.672;18.690;2023-05-07T07:13:46;99529.80;;;8.28
71081;BMP180;58740;50.672;18.690;2023-05-07T07:16:14;99531.80;;;8.30
71081;BMP180;58740;50.672;18.690;2023-05-07T07:18:42;99535.00;;;8.36
71081;BMP180;58740;50.672;18.690;2023-05-07T07:21:10;99538.00;;;8.40
71081;BMP180;58740;50.672;18.690;2023-05-07T07:23:37;99538.60;;;8.40
71081;BMP180;58740;50.672;18.690;2023-05-07T07:26:05;99539.40;;;8.40
71081;BMP180;58740;50.672;18.690;2023-05-07T07:28:34;99542.40;;;8.30
71081;BMP180;58740;50.672;18.690;2023-05-07T07:31:03;99545.00;;;8.30
71081;BMP180;58740;50.672;18.690;2023-05-07T07:33:30;99551.60;;;8.22
71081;BMP180;58740;50.672;18.690;2023-05-07T07:35:58;99555.80;;;8.20
71081;BMP180;58740;50.672;18.690;2023-05-07T07:38:26;99562.00;;;8.20
71081;BMP180;58740;50.672;18.690;2023-05-07T07:40:53;99565.20;;;8.20
71081;BMP180;58740;50.672;18.690;2023-05-07T07:43:22;99568.20;;;8.10
71081;BMP180;58740;50.672;18.690;2023-05-07T07:45:50;99569.60;;;8.10
71081;BMP180;58740;50.672;18.690;2023-05-07T07:48:17;99567.60;;;8.10
71081;BMP180;58740;50.672;18.690;2023-05-07T07:50:49;99567.80;;;8.16
71081;BMP180;58740;50.672;18.690;2023-05-07T07:53:19;99568.20;;;8.20
71081;BMP180;58740;50.672;18.690;2023-05-07T07:55:47;99569.60;;;8.16
71081;BMP180;58740;50.672;18.690;2023-05-07T07:58:18;99568.80;;;8.20
71081;BMP180;58740;50.672;18.690;2023-05-07T08:01:09;99572.80;;;8.20
71081;BMP180;58740;50.672;18.690;2023-05-07T08:03:42;99578.80;;;8.20
71081;BMP180;58740;50.672;18.690;2023-05-07T08:06:10;99583.80;;;8.20
71081;BMP180;58740;50.672;18.690;2023-05-07T08:08:46;99587.00;;;8.20
71081;BMP180;58740;50.672;18.690;2023-05-07T08:11:14;99579.20;;;8.20
71081;BMP180;58740;50.672;18.690;2023-05-07T08:14:03;99577.40;;;8.20
71081;BMP180;58740;50.672;18.690;2023-05-07T08:16:31;99580.00;;;8.20
71081;BMP180;58740;50.672;18.690;2023-05-07T08:18:59;99590.20;;;8.30
71081;BMP180;58740;50.672;18.690;2023-05-07T08:21:27;99593.80;;;8.30
71081;BMP180;58740;50.672;18.690;2023-05-07T08:24:03;99593.00;;;8.30
71081;BMP180;58740;50.672;18.690;2023-05-07T08:26:35;99599.00;;;8.30
71081;BMP180;58740;50.672;18.690;2023-05-07T08:29:04;99596.40;;;8.30
71081;BMP180;58740;50.672;18.690;2023-05-07T08:31:32;99600.60;;;8.34
71081;BMP180;58740;50.672;18.690;2023-05-07T08:34:00;99604.60;;;8.40
71081;BMP180;58740;50.672;18.690;2023-05-07T08:36:27;99608.80;;;8.40
71081;BMP180;58740;50.672;18.690;2023-05-07T08:38:56;99607.20;;;8.50
71081;BMP180;58740;50.672;18.690;2023-05-07T08:41:24;99614.80;;;8.50
71081;BMP180;58740;50.672;18.690;2023-05-07T08:43:52;99615.40;;;8.46
71081;BMP180;58740;50.672;18.690;2023-05-07T08:46:22;99621.00;;;8.46
71081;BMP180;58740;50.672;18.690;2023-05-07T08:48:51;99621.20;;;8.48
71081;BMP180;58740;50.672;18.690;2023-05-07T08:51:20;99623.60;;;8.40
71081;BMP180;58740;50.672;18.690;2023-05-07T08:53:49;99619.80;;;8.40
71081;BMP180;58740;50.672;18.690;2023-05-07T08:56:17;99625.00;;;8.40
71081;BMP180;58740;50.672;18.690;2023-05-07T08:58:49;99626.80;;;8.40
71081;BMP180;58740;50.672;18.690;2023-05-07T09:01:17;99627.40;;;8.40
71081;BMP180;58740;50.672;18.690;2023-05-07T09:03:46;99633.00;;;8.40
71081;BMP180;58740;50.672;18.690;2023-05-07T09:06:15;99632.80;;;8.40
71081;BMP180;58740;50.672;18.690;2023-05-07T09:08:53;99642.60;;;8.32
71081;BMP180;58740;50.672;18.690;2023-05-07T09:11:24;99639.80;;;8.30
71081;BMP180;58740;50.672;18.690;2023-05-07T09:13:56;99640.60;;;8.30
71081;BMP180;58740;50.672;18.690;2023-05-07T09:16:25;99646.40;;;8.30
71081;BMP180;58740;50.672;18.690;2023-05-07T09:18:54;99643.40;;;8.30
71081;BMP180;58740;50.672;18.690;2023-05-07T09:21:22;99646.80;;;8.30
71081;BMP180;58740;50.672;18.690;2023-05-07T09:23:52;99645.40;;;8.36
71081;BMP180;58740;50.672;18.690;2023-05-07T09:26:24;99651.40;;;8.40
71081;BMP180;58740;50.672;18.690;2023-05-07T09:28:55;99655.20;;;8.40
71081;BMP180;58740;50.672;18.690;2023-05-07T09:31:23;99653.80;;;8.40
71081;BMP180;58740;50.672;18.690;2023-05-07T09:33:52;99658.20;;;8.40
71081;BMP180;58740;50.672;18.690;2023-05-07T09:36:20;99658.60;;;8.40
71081;BMP180;58740;50.672;18.690;2023-05-07T09:38:48;99661.00;;;8.44
71081;BMP180;58740;50.672;18.690;2023-05-07T09:41:19;99666.40;;;8.50
71081;BMP180;58740;50.672;18.690;2023-05-07T09:43:54;99661.40;;;8.50
71081;BMP180;58740;50.672;18.690;2023-05-07T09:46:30;99656.60;;;8.50
71081;BMP180;58740;50.672;18.690;2023-05-07T09:49:02;99655.40;;;8.60
71081;BMP180;58740;50.672;18.690;2023-05-07T09:51:42;99650.40;;;8.60
71081;BMP180;58740;50.672;18.690;2023-05-07T09:54:11;99658.60;;;8.62
71081;BMP180;58740;50.672;18.690;2023-05-07T09:56:40;99659.80;;;8.70
71081;BMP180;58740;50.672;18.690;2023-05-07T09:59:15;99663.60;;;8.70
71081;BMP180;58740;50.672;18.690;2023-05-07T10:01:44;99661.20;;;8.70
71081;BMP180;58740;50.672;18.690;2023-05-07T10:04:13;99660.60;;;8.70
71081;BMP180;58740;50.672;18.690;2023-05-07T10:06:43;99674.40;;;8.70
71081;BMP180;58740;50.672;18.690;2023-05-07T10:09:12;99679.40;;;8.70
71081;BMP180;58740;50.672;18.690;2023-05-07T10:11:41;99680.80;;;8.72
71081;BMP180;58740;50.672;18.690;2023-05-07T10:14:10;99687.60;;;8.80
71081;BMP180;58740;50.672;18.690;2023-05-07T10:16:38;99685.20;;;8.74
71081;BMP180;58740;50.672;18.690;2023-05-07T10:19:07;99688.20;;;8.70
71081;BMP180;58740;50.672;18.690;2023-05-07T10:21:39;99680.80;;;8.70
71081;BMP180;58740;50.672;18.690;2023-05-07T10:24:20;99682.00;;;8.70
71081;BMP180;58740;50.672;18.690;2023-05-07T10:26:52;99684.60;;;8.70
71081;BMP180;58740;50.672;18.690;2023-05-07T10:34:48;99690.20;;;8.70
71081;BMP180;58740;50.672;18.690;2023-05-07T10:37:19;99687.20;;;8.62
71081;BMP180;58740;50.672;18.690;2023-05-07T10:39:47;99697.20;;;8.64
71081;BMP180;58740;50.672;18.690;2023-05-07T10:42:15;99691.20;;;8.70
71081;BMP180;58740;50.672;18.690;2023-05-07T10:44:43;99691.80;;;8.70
71081;BMP180;58740;50.672;18.690;2023-05-07T10:47:16;99701.80;;;8.70
71081;BMP180;58740;50.672;18.690;2023-05-07T10:52:17;99709.40;;;8.70
71081;BMP180;58740;50.672;18.690;2023-05-07T10:54:46;99712.00;;;8.80
71081;BMP180;58740;50.672;18.690;2023-05-07T10:57:35;99706.80;;;8.80
71081;BMP180;58740;50.672;18.690;2023-05-07T11:03:06;99711.40;;;8.78
71081;BMP180;58740;50.672;18.690;2023-05-07T11:05:37;99715.40;;;8.70
71081;BMP180;58740;50.672;18.690;2023-05-07T11:08:05;99711.20;;;8.70
71081;BMP180;58740;50.672;18.690;2023-05-07T11:10:55;99713.40;;;8.62
71081;BMP180;58740;50.672;18.690;2023-05-07T11:13:44;99716.60;;;8.60
71081;BMP180;58740;50.672;18.690;2023-05-07T11:16:24;99723.00;;;8.60
71081;BMP180;58740;50.672;18.690;2023-05-07T11:18:55;99725.60;;;8.60
71081;BMP180;58740;50.672;18.690;2023-05-07T11:21:42;99723.00;;;8.64
71081;BMP180;58740;50.672;18.690;2023-05-07T11:24:10;99724.00;;;8.66
71081;BMP180;58740;50.672;18.690;2023-05-07T11:26:45;99725.00;;;8.62
71081;BMP180;58740;50.672;18.690;2023-05-07T11:29:18;99730.80;;;8.70
71081;BMP180;58740;50.672;18.690;2023-05-07T11:31:55;99730.60;;;8.80
71081;BMP180;58740;50.672;18.690;2023-05-07T11:34:25;99736.40;;;8.80
71081;BMP180;58740;50.672;18.690;2023-05-07T11:36:55;99736.00;;;8.82
71081;BMP180;58740;50.672;18.690;2023-05-07T11:39:32;99728.80;;;8.80
71081;BMP180;58740;50.672;18.690;2023-05-07T11:42:03;99740.40;;;8.80
71081;BMP180;58740;50.672;18.690;2023-05-07T11:44:43;99741.80;;;8.78
71081;BMP180;58740;50.672;18.690;2023-05-07T11:47:11;99734.40;;;8.80
71081;BMP180;58740;50.672;18.690;2023-05-07T11:49:49;99726.40;;;8.80
71081;BMP180;58740;50.672;18.690;2023-05-07T11:52:19;99725.20;;;8.80
71081;BMP180;58740;50.672;18.690;2023-05-07T11:54:56;99723.20;;;8.80
71081;BMP180;58740;50.672;18.690;2023-05-07T11:57:25;99725.00;;;8.90
71081;BMP180;58740;50.672;18.690;2023-05-07T11:59:58;99728.40;;;9.00
71081;BMP180;58740;50.672;18.690;2023-05-07T12:02:27;99731.40;;;9.02
71081;BMP180;58740;50.672;18.690;2023-05-07T12:04:55;99731.20;;;9.10
71081;BMP180;58740;50.672;18.690;2023-05-07T12:07:24;99737.20;;;9.20
71081;BMP180;58740;50.672;18.690;2023-05-07T12:09:53;99744.40;;;9.20
71081;BMP180;58740;50.672;18.690;2023-05-07T12:12:21;99742.80;;;9.10
71081;BMP180;58740;50.672;18.690;2023-05-07T12:14:50;99744.00;;;9.10
71081;BMP180;58740;50.672;18.690;2023-05-07T12:17:18;99740.00;;;9.10
71081;BMP180;58740;50.672;18.690;2023-05-07T12:19:47;99749.00;;;9.08
71081;BMP180;58740;50.672;18.690;2023-05-07T12:22:19;99745.00;;;9.00
71081;BMP180;58740;50.672;18.690;2023-05-07T12:24:56;99755.20;;;9.00
71081;BMP180;58740;50.672;18.690;2023-05-07T12:27:26;99760.80;;;9.00
71081;BMP180;58740;50.672;18.690;2023-05-07T12:29:54;99755.00;;;9.00
71081;BMP180;58740;50.672;18.690;2023-05-07T12:32:22;99753.80;;;9.00
71081;BMP180;58740;50.672;18.690;2023-05-07T12:34:51;99753.80;;;9.04
71081;BMP180;58740;50.672;18.690;2023-05-07T12:37:24;99756.60;;;9.10
71081;BMP180;58740;50.672;18.690;2023-05-07T12:40:06;99760.20;;;9.10
71081;BMP180;58740;50.672;18.690;2023-05-07T12:42:53;99758.60;;;9.10
71081;BMP180;58740;50.672;18.690;2023-05-07T12:45:27;99766.00;;;9.06
71081;BMP180;58740;50.672;18.690;2023-05-07T12:47:55;99765.80;;;9.10
71081;BMP180;58740;50.672;18.690;2023-05-07T12:50:22;99764.00;;;9.10
71081;BMP180;58740;50.672;18.690;2023-05-07T12:52:50;99762.00;;;9.10
71081;BMP180;58740;50.672;18.690;2023-05-07T12:55:18;99763.20;;;9.20
71081;BMP180;58740;50.672;18.690;2023-05-07T12:57:51;99763.20;;;9.20
71081;BMP180;58740;50.672;18.690;2023-05-07T13:00:40;99766.40;;;9.30
71081;BMP180;58740;50.672;18.690;2023-05-07T13:03:09;99760.60;;;9.30
71081;BMP180;58740;50.672;18.690;2023-05-07T13:05:37;99760.60;;;9.30
71081;BMP180;58740;50.672;18.690;2023-05-07T13:08:05;99762.60;;;9.40
71081;BMP180;58740;50.672;18.690;2023-05-07T13:10:33;99758.60;;;9.40
71081;BMP180;58740;50.672;18.690;2023-05-07T13:13:02;99756.60;;;9.34
71081;BMP180;58740;50.672;18.690;2023-05-07T13:15:30;99766.40;;;9.32
71081;BMP180;58740;50.672;18.690;2023-05-07T13:17:58;99766.40;;;9.30
71081;BMP180;58740;50.672;18.690;2023-05-07T13:20:26;99775.20;;;9.30
71081;BMP180;58740;50.672;18.690;2023-05-07T13:22:54;99775.00;;;9.30
71081;BMP180;58740;50.672;18.690;2023-05-07T13:25:22;99778.60;;;9.20
71081;BMP180;58740;50.672;18.690;2023-05-07T13:27:50;99781.20;;;9.20
71081;BMP180;58740;50.672;18.690;2023-05-07T13:30:36;99773.80;;;9.18
71081;BMP180;58740;50.672;18.690;2023-05-07T13:33:04;99778.00;;;9.10
71081;BMP180;58740;50.672;18.690;2023-05-07T13:35:33;99786.60;;;9.10
71081;BMP180;58740;50.672;18.690;2023-05-07T13:38:01;99782.40;;;9.10
71081;BMP180;58740;50.672;18.690;2023-05-07T13:40:29;99781.20;;;9.06
71081;BMP180;58740;50.672;18.690;2023-05-07T13:42:59;99791.60;;;9.10
71081;BMP180;58740;50.672;18.690;2023-05-07T13:45:29;99792.00;;;9.10
71081;BMP180;58740;50.672;18.690;2023-05-07T13:47:57;99791.60;;;9.10
71081;BMP180;58740;50.672;18.690;2023-05-07T13:50:26;99787.80;;;9.10
71081;BMP180;58740;50.672;18.690;2023-05-07T13:52:57;99794.60;;;9.10
71081;BMP180;58740;50.672;18.690;2023-05-07T13:55:25;99785.40;;;9.00
71081;BMP180;58740;50.672;18.690;2023-05-07T13:58:01;99787.00;;;9.00
71081;BMP180;58740;50.672;18.690;2023-05-07T14:00:33;99788.80;;;9.00
71081;BMP180;58740;50.672;18.690;2023-05-07T14:03:02;99787.20;;;9.00
71081;BMP180;58740;50.672;18.690;2023-05-07T14:05:31;99790.80;;;9.10
71081;BMP180;58740;50.672;18.690;2023-05-07T14:07:59;99785.20;;;9.10
71081;BMP180;58740;50.672;18.690;2023-05-07T14:10:27;99789.40;;;9.16
71081;BMP180;58740;50.672;18.690;2023-05-07T14:12:55;99792.40;;;9.20
71081;BMP180;58740;50.672;18.690;2023-05-07T14:15:22;99797.00;;;9.20
71081;BMP180;58740;50.672;18.690;2023-05-07T14:17:50;99798.80;;;9.26
71081;BMP180;58740;50.672;18.690;2023-05-07T14:20:18;99795.00;;;9.28
71081;BMP180;58740;50.672;18.690;2023-05-07T14:22:46;99793.00;;;9.30
71081;BMP180;58740;50.672;18.690;2023-05-07T14:25:14;99794.40;;;9.30
71081;BMP180;58740;50.672;18.690;2023-05-07T14:27:42;99790.40;;;9.30
71081;BMP180;58740;50.672;18.690;2023-05-07T14:30:10;99799.80;;;9.30
71081;BMP180;58740;50.672;18.690;2023-05-07T14:32:39;99802.60;;;9.30